sensor_id;sensor_type;location;lat;lon;timestamp;pressure;altitude;pressure_sealevel;temperature;humidity
36726;BME280;44936;52.086;5.150;2022-12-20T00:01:27;101671.53;;;6.17;100.00
36726;BME280;44936;52.086;5.150;2022-12-20T00:03:54;101720.72;;;6.59;100.00
36726;BME280;44936;52.086;5.150;2022-12-20T00:06:20;101760.19;;;6.69;100.00
36726;BME280;44936;52.086;5.150;2022-12-20T00:08:46;101736.47;;;6.62;100.00
36726;BME280;44936;52.086;5.150;2022-12-20T00:11:16;101734.69;;;6.61;100.00
36726;BME280;44936;52.086;5.150;2022-12-20T00:13:45;101751.31;;;6.63;100.00
36726;BME280;44936;52.086;5.150;2022-12-20T00:16:14;101759.00;;;6.60;100.00
36726;BME280;44936;52.086;5.150;2022-12-20T00:18:44;101746.50;;;6.49;100.00
36726;BME280;44936;52.086;5.150;2022-12-20T00:21:13;101767.91;;;6.92;100.00
36726;BME280;44936;52.086;5.150;2022-12-20T00:23:40;101702.41;;;6.56;100.00
36726;BME280;44936;52.086;5.150;2022-12-20T00:26:13;101759.16;;;6.90;100.00
36726;BME280;44936;52.086;5.150;2022-12-20T00:28:42;101735.13;;;7.00;100.00
36726;BME280;44936;52.086;5.150;2022-12-20T00:31:09;101759.88;;;7.13;100.00
36726;BME280;44936;52.086;5.150;2022-12-20T00:33:36;101685.75;;;6.79;100.00
36726;BME280;44936;52.086;5.150;2022-12-20T00:36:06;101764.44;;;7.20;100.00
36726;BME280;44936;52.086;5.150;2022-12-20T00:38:32;101749.34;;;7.09;100.00
36726;BME280;44936;52.086;5.150;2022-12-20T00:41:07;101738.91;;;7.09;100.00
36726;BME280;44936;52.086;5.150;2022-12-20T00:43:33;101696.97;;;7.03;100.00
36726;BME280;44936;52.086;5.150;2022-12-20T00:46:00;101711.69;;;7.01;100.00
36726;BME280;44936;52.086;5.150;2022-12-20T00:48:27;101708.53;;;7.12;100.00
36726;BME280;44936;52.086;5.150;2022-12-20T00:50:57;101760.09;;;7.49;100.00
36726;BME280;44936;52.086;5.150;2022-12-20T00:53:23;101718.25;;;7.46;100.00
36726;BME280;44936;52.086;5.150;2022-12-20T00:55:48;101723.72;;;7.53;100.00
36726;BME280;44936;52.086;5.150;2022-12-20T00:58:17;101713.41;;;7.29;100.00
36726;BME280;44936;52.086;5.150;2022-12-20T01:00:45;101700.34;;;7.28;100.00
36726;BME280;44936;52.086;5.150;2022-12-20T01:06:00;101712.69;;;7.33;100.00
36726;BME280;44936;52.086;5.150;2022-12-20T01:08:28;101698.44;;;7.24;100.00
36726;BME280;44936;52.086;5.150;2022-12-20T01:10:58;101753.69;;;7.67;100.00
36726;BME280;44936;52.086;5.150;2022-12-20T01:13:24;101705.22;;;7.46;100.00
36726;BME280;44936;52.086;5.150;2022-12-20T01:15:50;101746.72;;;7.66;100.00
36726;BME280;44936;52.086;5.150;2022-12-20T01:18:23;101652.06;;;7.42;100.00
36726;BME280;44936;52.086;5.150;2022-12-20T01:21:10;101677.69;;;7.57;100.00
36726;BME280;44936;52.086;5.150;2022-12-20T01:23:36;101663.44;;;7.46;100.00
36726;BME280;44936;52.086;5.150;2022-12-20T01:26:04;101677.97;;;7.36;100.00
36726;BME280;44936;52.086;5.150;2022-12-20T01:28:35;101710.59;;;7.82;100.00
36726;BME280;44936;52.086;5.150;2022-12-20T01:31:00;101656.09;;;7.62;100.00
36726;BME280;44936;52.086;5.150;2022-12-20T01:33:38;101672.97;;;7.75;100.00
36726;BME280;44936;52.086;5.150;2022-12-20T01:36:06;101653.94;;;7.48;100.00
36726;BME280;44936;52.086;5.150;2022-12-20T01:38:33;101680.81;;;7.75;100.00
36726;BME280;44936;52.086;5.150;2022-12-20T01:41:19;101686.88;;;7.74;100.00
36726;BME280;44936;52.086;5.150;2022-12-20T01:46:22;101633.69;;;7.39;100.00
36726;BME280;44936;52.086;5.150;2022-12-20T01:49:55;101661.97;;;7.55;100.00
36726;BME280;44936;52.086;5.150;2022-12-20T01:52:23;101625.66;;;7.33;100.00
36726;BME280;44936;52.086;5.150;2022-12-20T01:55:12;101663.16;;;7.66;100.00
36726;BME280;44936;52.086;5.150;2022-12-20T02:00:19;101606.31;;;7.25;100.00
36726;BME280;44936;52.086;5.150;2022-12-20T02:02:46;101663.91;;;7.61;100.00
36726;BME280;44936;52.086;5.150;2022-12-20T02:05:13;101630.97;;;7.36;100.00
36726;BME280;44936;52.086;5.150;2022-12-20T02:07:40;101614.06;;;7.23;100.00
36726;BME280;44936;52.086;5.150;2022-12-20T02:10:07;101650.16;;;7.68;100.00
36726;BME280;44936;52.086;5.150;2022-12-20T02:12:45;101592.69;;;7.35;100.00
36726;BME280;44936;52.086;5.150;2022-12-20T02:16:09;101558.53;;;7.27;100.00
36726;BME280;44936;52.086;5.150;2022-12-20T02:18:23;101635.22;;;7.62;100.00
36726;BME280;44936;52.086;5.150;2022-12-20T02:32:15;101581.03;;;7.54;100.00
36726;BME280;44936;52.086;5.150;2022-12-20T02:34:41;101548.91;;;7.58;100.00
36726;BME280;44936;52.086;5.150;2022-12-20T02:37:08;101490.78;;;7.30;100.00
36726;BME280;44936;52.086;5.150;2022-12-20T02:39:36;101594.31;;;7.63;100.00
36726;BME280;44936;52.086;5.150;2022-12-20T02:42:15;101588.00;;;7.55;100.00
36726;BME280;44936;52.086;5.150;2022-12-20T02:44:48;101538.47;;;7.25;100.00
36726;BME280;44936;52.086;5.150;2022-12-20T02:47:36;101552.91;;;7.44;100.00
36726;BME280;44936;52.086;5.150;2022-12-20T02:50:07;101584.47;;;7.53;100.00
36726;BME280;44936;52.086;5.150;2022-12-20T02:52:34;101636.06;;;7.61;100.00
36726;BME280;44936;52.086;5.150;2022-12-20T02:55:01;101580.03;;;7.50;100.00
36726;BME280;44936;52.086;5.150;2022-12-20T02:57:49;101621.31;;;7.63;100.00
36726;BME280;44936;52.086;5.150;2022-12-20T03:00:21;101584.97;;;7.39;100.00
36726;BME280;44936;52.086;5.150;2022-12-20T03:02:48;101627.28;;;7.59;100.00
36726;BME280;44936;52.086;5.150;2022-12-20T03:05:42;101584.19;;;7.42;100.00
36726;BME280;44936;52.086;5.150;2022-12-20T03:08:11;101572.09;;;7.46;100.00
36726;BME280;44936;52.086;5.150;2022-12-20T03:10:39;101609.00;;;7.59;100.00
36726;BME280;44936;52.086;5.150;2022-12-20T03:13:05;101629.88;;;7.59;100.00
36726;BME280;44936;52.086;5.150;2022-12-20T03:15:30;101555.72;;;7.20;100.00
36726;BME280;44936;52.086;5.150;2022-12-20T03:17:56;101576.38;;;7.12;100.00
36726;BME280;44936;52.086;5.150;2022-12-20T03:20:21;101558.13;;;7.14;100.00
36726;BME280;44936;52.086;5.150;2022-12-20T03:22:47;101643.53;;;7.49;100.00
36726;BME280;44936;52.086;5.150;2022-12-20T03:25:12;101628.75;;;7.50;100.00
36726;BME280;44936;52.086;5.150;2022-12-20T03:27:38;101619.19;;;7.50;100.00
36726;BME280;44936;52.086;5.150;2022-12-20T03:30:04;101610.53;;;7.51;100.00
36726;BME280;44936;52.086;5.150;2022-12-20T03:32:30;101542.34;;;7.07;100.00
36726;BME280;44936;52.086;5.150;2022-12-20T03:34:58;101577.06;;;7.36;100.00
36726;BME280;44936;52.086;5.150;2022-12-20T03:37:23;101588.56;;;7.43;100.00
36726;BME280;44936;52.086;5.150;2022-12-20T03:39:49;101536.34;;;7.12;100.00
36726;BME280;44936;52.086;5.150;2022-12-20T03:42:15;101616.44;;;7.44;100.00
36726;BME280;44936;52.086;5.150;2022-12-20T03:44:40;101521.75;;;7.18;100.00
36726;BME280;44936;52.086;5.150;2022-12-20T03:47:06;101531.00;;;7.38;100.00
36726;BME280;44936;52.086;5.150;2022-12-20T03:49:31;101532.03;;;7.44;100.00
36726;BME280;44936;52.086;5.150;2022-12-20T03:51:57;101592.56;;;7.62;100.00
36726;BME280;44936;52.086;5.150;2022-12-20T03:54:32;101565.22;;;7.49;100.00
36726;BME280;44936;52.086;5.150;2022-12-20T03:56:58;101584.69;;;7.60;100.00
36726;BME280;44936;52.086;5.150;2022-12-20T03:59:23;101537.28;;;7.45;100.00
36726;BME280;44936;52.086;5.150;2022-12-20T04:01:52;101584.31;;;7.80;100.00
36726;BME280;44936;52.086;5.150;2022-12-20T04:04:17;101587.69;;;7.76;100.00
36726;BME280;44936;52.086;5.150;2022-12-20T04:06:43;101535.78;;;7.55;100.00
36726;BME280;44936;52.086;5.150;2022-12-20T04:09:09;101578.06;;;7.73;100.00
36726;BME280;44936;52.086;5.150;2022-12-20T04:11:37;101583.94;;;7.99;100.00
36726;BME280;44936;52.086;5.150;2022-12-20T04:14:03;101588.41;;;8.03;100.00
36726;BME280;44936;52.086;5.150;2022-12-20T04:16:30;101588.31;;;8.00;100.00
36726;BME280;44936;52.086;5.150;2022-12-20T04:18:55;101590.03;;;7.98;100.00
36726;BME280;44936;52.086;5.150;2022-12-20T04:21:23;101567.00;;;7.83;100.00
36726;BME280;44936;52.086;5.150;2022-12-20T04:23:49;101557.41;;;7.82;100.00
36726;BME280;44936;52.086;5.150;2022-12-20T04:26:15;101554.72;;;7.79;100.00
36726;BME280;44936;52.086;5.150;2022-12-20T04:28:42;101581.31;;;7.98;100.00
36726;BME280;44936;52.086;5.150;2022-12-20T04:31:07;101538.47;;;7.91;100.00
36726;BME280;44936;52.086;5.150;2022-12-20T04:33:33;101543.75;;;7.94;100.00
36726;BME280;44936;52.086;5.150;2022-12-20T04:35:58;101564.97;;;8.06;100.00
36726;BME280;44936;52.086;5.150;2022-12-20T04:38:27;101596.75;;;8.23;100.00
36726;BME280;44936;52.086;5.150;2022-12-20T04:40:54;101571.75;;;7.98;100.00
36726;BME280;44936;52.086;5.150;2022-12-20T04:43:20;101526.00;;;7.79;100.00
36726;BME280;44936;52.086;5.150;2022-12-20T04:45:47;101519.25;;;7.87;100.00
36726;BME280;44936;52.086;5.150;2022-12-20T04:48:14;101489.22;;;8.06;100.00
36726;BME280;44936;52.086;5.150;2022-12-20T04:50:39;101551.97;;;8.44;100.00
36726;BME280;44936;52.086;5.150;2022-12-20T04:53:06;101504.19;;;8.13;100.00
36726;BME280;44936;52.086;5.150;2022-12-20T04:55:51;101577.44;;;8.52;100.00
36726;BME280;44936;52.086;5.150;2022-12-20T04:58:19;101532.75;;;8.42;100.00
36726;BME280;44936;52.086;5.150;2022-12-20T05:00:47;101503.88;;;8.37;100.00
36726;BME280;44936;52.086;5.150;2022-12-20T05:03:13;101489.41;;;8.14;100.00
36726;BME280;44936;52.086;5.150;2022-12-20T05:05:38;101522.91;;;8.69;100.00
36726;BME280;44936;52.086;5.150;2022-12-20T05:08:05;101470.03;;;8.42;100.00
36726;BME280;44936;52.086;5.150;2022-12-20T05:10:30;101497.06;;;8.44;100.00
36726;BME280;44936;52.086;5.150;2022-12-20T05:12:56;101507.88;;;8.59;100.00
36726;BME280;44936;52.086;5.150;2022-12-20T05:15:21;101503.34;;;8.52;100.00
36726;BME280;44936;52.086;5.150;2022-12-20T05:17:50;101487.59;;;8.49;100.00
36726;BME280;44936;52.086;5.150;2022-12-20T05:20:15;101436.66;;;8.32;100.00
36726;BME280;44936;52.086;5.150;2022-12-20T05:22:44;101509.81;;;8.69;100.00
36726;BME280;44936;52.086;5.150;2022-12-20T05:25:28;101476.88;;;8.37;100.00
36726;BME280;44936;52.086;5.150;2022-12-20T05:28:32;101509.81;;;8.69;100.00
36726;BME280;44936;52.086;5.150;2022-12-20T05:30:59;101486.66;;;8.47;100.00
36726;BME280;44936;52.086;5.150;2022-12-20T05:33:25;101437.56;;;8.34;100.00
36726;BME280;44936;52.086;5.150;2022-12-20T05:35:51;101500.97;;;8.63;100.00
36726;BME280;44936;52.086;5.150;2022-12-20T05:38:17;101512.25;;;8.60;100.00
36726;BME280;44936;52.086;5.150;2022-12-20T05:40:43;101479.28;;;8.29;100.00
36726;BME280;44936;52.086;5.150;2022-12-20T05:43:09;101463.69;;;8.34;100.00
36726;BME280;44936;52.086;5.150;2022-12-20T05:45:34;101429.31;;;8.15;100.00
36726;BME280;44936;52.086;5.150;2022-12-20T05:48:00;101394.56;;;8.19;100.00
36726;BME280;44936;52.086;5.150;2022-12-20T05:50:26;101378.09;;;8.22;100.00
36726;BME280;44936;52.086;5.150;2022-12-20T05:52:51;101461.75;;;8.64;100.00
36726;BME280;44936;52.086;5.150;2022-12-20T05:55:17;101419.56;;;8.46;100.00
36726;BME280;44936;52.086;5.150;2022-12-20T05:57:42;101473.97;;;8.65;100.00
36726;BME280;44936;52.086;5.150;2022-12-20T06:00:09;101428.81;;;8.32;100.00
36726;BME280;44936;52.086;5.150;2022-12-20T06:02:35;101457.19;;;8.54;100.00
36726;BME280;44936;52.086;5.150;2022-12-20T06:05:00;101471.25;;;8.59;100.00
36726;BME280;44936;52.086;5.150;2022-12-20T06:07:27;101414.88;;;8.31;100.00
36726;BME280;44936;52.086;5.150;2022-12-20T06:09:56;101440.34;;;8.40;100.00
36726;BME280;44936;52.086;5.150;2022-12-20T06:12:22;101404.06;;;8.14;100.00
36726;BME280;44936;52.086;5.150;2022-12-20T06:14:47;101413.56;;;8.12;100.00
36726;BME280;44936;52.086;5.150;2022-12-20T06:17:13;101477.53;;;8.67;100.00
36726;BME280;44936;52.086;5.150;2022-12-20T06:19:38;101448.78;;;8.30;100.00
36726;BME280;44936;52.086;5.150;2022-12-20T06:22:06;101468.13;;;8.35;100.00
36726;BME280;44936;52.086;5.150;2022-12-20T06:24:33;101520.84;;;8.56;100.00
36726;BME280;44936;52.086;5.150;2022-12-20T06:26:59;101518.25;;;8.56;100.00
36726;BME280;44936;52.086;5.150;2022-12-20T06:29:25;101483.13;;;8.43;100.00
36726;BME280;44936;52.086;5.150;2022-12-20T06:31:50;101500.53;;;8.43;100.00
36726;BME280;44936;52.086;5.150;2022-12-20T06:34:16;101467.81;;;8.22;100.00
36726;BME280;44936;52.086;5.150;2022-12-20T06:36:42;101480.16;;;8.30;100.00
36726;BME280;44936;52.086;5.150;2022-12-20T06:39:09;101445.81;;;8.13;100.00
36726;BME280;44936;52.086;5.150;2022-12-20T06:41:35;101523.34;;;8.50;100.00
36726;BME280;44936;52.086;5.150;2022-12-20T06:44:01;101512.03;;;8.51;100.00
36726;BME280;44936;52.086;5.150;2022-12-20T06:46:50;101515.28;;;8.39;100.00
36726;BME280;44936;52.086;5.150;2022-12-20T06:49:19;101479.72;;;8.11;100.00
36726;BME280;44936;52.086;5.150;2022-12-20T06:51:44;101477.84;;;8.04;100.00
36726;BME280;44936;52.086;5.150;2022-12-20T06:54:10;101519.66;;;8.40;100.00
36726;BME280;44936;52.086;5.150;2022-12-20T06:56:35;101482.69;;;8.25;100.00
36726;BME280;44936;52.086;5.150;2022-12-20T06:59:01;101424.38;;;7.90;100.00
36726;BME280;44936;52.086;5.150;2022-12-20T07:01:40;101499.94;;;8.56;100.00
36726;BME280;44936;52.086;5.150;2022-12-20T07:04:05;101498.94;;;8.49;100.00
36726;BME280;44936;52.086;5.150;2022-12-20T07:06:31;101517.13;;;8.45;100.00
36726;BME280;44936;52.086;5.150;2022-12-20T07:08:56;101527.50;;;8.40;100.00
36726;BME280;44936;52.086;5.150;2022-12-20T07:11:22;101495.56;;;8.17;100.00
36726;BME280;44936;52.086;5.150;2022-12-20T07:13:48;101510.16;;;8.45;100.00
36726;BME280;44936;52.086;5.150;2022-12-20T07:16:14;101479.09;;;8.21;100.00
36726;BME280;44936;52.086;5.150;2022-12-20T07:18:40;101459.13;;;8.23;100.00
36726;BME280;44936;52.086;5.150;2022-12-20T07:21:06;101467.06;;;8.28;100.00
36726;BME280;44936;52.086;5.150;2022-12-20T07:23:32;101502.09;;;8.35;100.00
36726;BME280;44936;52.086;5.150;2022-12-20T07:25:59;101528.69;;;8.56;100.00
36726;BME280;44936;52.086;5.150;2022-12-20T07:28:26;101480.78;;;8.19;100.00
36726;BME280;44936;52.086;5.150;2022-12-20T07:30:52;101484.69;;;8.37;100.00
36726;BME280;44936;52.086;5.150;2022-12-20T07:33:18;101474.81;;;8.23;100.00
36726;BME280;44936;52.086;5.150;2022-12-20T07:35:44;101494.31;;;8.38;100.00
36726;BME280;44936;52.086;5.150;2022-12-20T07:38:14;101535.63;;;8.54;100.00
36726;BME280;44936;52.086;5.150;2022-12-20T07:40:40;101462.28;;;8.10;100.00
36726;BME280;44936;52.086;5.150;2022-12-20T07:43:06;101542.66;;;8.57;100.00
36726;BME280;44936;52.086;5.150;2022-12-20T07:45:32;101492.53;;;8.37;100.00
36726;BME280;44936;52.086;5.150;2022-12-20T07:47:58;101506.97;;;8.57;100.00
36726;BME280;44936;52.086;5.150;2022-12-20T07:50:25;101454.56;;;8.15;100.00
36726;BME280;44936;52.086;5.150;2022-12-20T07:52:54;101533.50;;;8.75;100.00
36726;BME280;44936;52.086;5.150;2022-12-20T07:55:20;101470.75;;;8.36;100.00
36726;BME280;44936;52.086;5.150;2022-12-20T07:57:49;101543.97;;;8.75;100.00
36726;BME280;44936;52.086;5.150;2022-12-20T08:00:16;101520.94;;;8.59;100.00
36726;BME280;44936;52.086;5.150;2022-12-20T08:03:22;101513.59;;;8.43;100.00
36726;BME280;44936;52.086;5.150;2022-12-20T08:05:42;101540.09;;;8.58;100.00
36726;BME280;44936;52.086;5.150;2022-12-20T08:08:11;101524.31;;;8.55;100.00
36726;BME280;44936;52.086;5.150;2022-12-20T08:10:38;101455.50;;;8.17;100.00
36726;BME280;44936;52.086;5.150;2022-12-20T08:13:06;101428.31;;;8.10;100.00
36726;BME280;44936;52.086;5.150;2022-12-20T08:15:33;101476.16;;;8.44;100.00
36726;BME280;44936;52.086;5.150;2022-12-20T08:17:59;101482.22;;;8.43;100.00
36726;BME280;44936;52.086;5.150;2022-12-20T08:20:25;101503.34;;;8.52;100.00
36726;BME280;44936;52.086;5.150;2022-12-20T08:22:50;101465.53;;;8.36;100.00
36726;BME280;44936;52.086;5.150;2022-12-20T08:25:16;101452.91;;;8.18;100.00
36726;BME280;44936;52.086;5.150;2022-12-20T08:27:41;101520.13;;;8.62;100.00
36726;BME280;44936;52.086;5.150;2022-12-20T08:30:10;101456.50;;;8.23;100.00
36726;BME280;44936;52.086;5.150;2022-12-20T08:32:39;101509.69;;;8.63;100.00
36726;BME280;44936;52.086;5.150;2022-12-20T08:35:35;101491.97;;;8.50;100.00
36726;BME280;44936;52.086;5.150;2022-12-20T08:38:00;101485.78;;;8.46;100.00
36726;BME280;44936;52.086;5.150;2022-12-20T08:40:26;101462.66;;;8.26;100.00
36726;BME280;44936;52.086;5.150;2022-12-20T08:42:53;101457.44;;;8.27;100.00
36726;BME280;44936;52.086;5.150;2022-12-20T08:45:18;101485.97;;;8.54;100.00
36726;BME280;44936;52.086;5.150;2022-12-20T08:48:00;101454.69;;;8.21;100.00
36726;BME280;44936;52.086;5.150;2022-12-20T08:58:23;101428.81;;;8.32;100.00
36726;BME280;44936;52.086;5.150;2022-12-20T09:00:48;101482.78;;;8.67;100.00
36726;BME280;44936;52.086;5.150;2022-12-20T09:03:14;101421.84;;;8.32;100.00
36726;BME280;44936;52.086;5.150;2022-12-20T09:05:46;101413.91;;;8.28;100.00
36726;BME280;44936;52.086;5.150;2022-12-20T09:08:13;101398.44;;;8.37;100.00
36726;BME280;44936;52.086;5.150;2022-12-20T09:10:39;101438.19;;;8.61;100.00
36726;BME280;44936;52.086;5.150;2022-12-20T09:13:05;101456.91;;;8.83;100.00
36726;BME280;44936;52.086;5.150;2022-12-20T09:15:33;101444.94;;;8.94;100.00
36726;BME280;44936;52.086;5.150;2022-12-20T09:17:59;101443.91;;;8.86;100.00
36726;BME280;44936;52.086;5.150;2022-12-20T09:20:46;101370.09;;;8.57;100.00
36726;BME280;44936;52.086;5.150;2022-12-20T09:23:14;101408.09;;;8.83;100.00
36726;BME280;44936;52.086;5.150;2022-12-20T09:25:40;101369.34;;;8.62;100.00
36726;BME280;44936;52.086;5.150;2022-12-20T09:28:05;101428.47;;;8.99;100.00
36726;BME280;44936;52.086;5.150;2022-12-20T09:30:31;101381.72;;;8.72;100.00
36726;BME280;44936;52.086;5.150;2022-12-20T09:33:01;101378.38;;;8.79;100.00
36726;BME280;44936;52.086;5.150;2022-12-20T09:35:29;101374.88;;;8.77;100.00
36726;BME280;44936;52.086;5.150;2022-12-20T09:38:03;101443.38;;;9.03;100.00
36726;BME280;44936;52.086;5.150;2022-12-20T09:40:30;101369.19;;;8.56;100.00
36726;BME280;44936;52.086;5.150;2022-12-20T09:43:03;101398.94;;;8.60;100.00
36726;BME280;44936;52.086;5.150;2022-12-20T09:45:34;101408.03;;;8.80;100.00
36726;BME280;44936;52.086;5.150;2022-12-20T09:48:01;101373.91;;;8.74;100.00
36726;BME280;44936;52.086;5.150;2022-12-20T09:56:54;101424.34;;;9.12;100.00
36726;BME280;44936;52.086;5.150;2022-12-20T09:59:24;101405.75;;;8.98;100.00
36726;BME280;44936;52.086;5.150;2022-12-20T10:01:49;101363.34;;;8.68;100.00
36726;BME280;44936;52.086;5.150;2022-12-20T10:04:26;101434.91;;;9.18;100.00
36726;BME280;44936;52.086;5.150;2022-12-20T10:13:14;101455.03;;;9.19;100.00
36726;BME280;44936;52.086;5.150;2022-12-20T10:15:54;101383.84;;;8.92;100.00
36726;BME280;44936;52.086;5.150;2022-12-20T10:24:04;101431.78;;;9.38;100.00
36726;BME280;44936;52.086;5.150;2022-12-20T10:26:37;101389.97;;;8.92;100.00
36726;BME280;44936;52.086;5.150;2022-12-20T10:29:03;101442.97;;;9.29;100.00
36726;BME280;44936;52.086;5.150;2022-12-20T10:31:28;101464.97;;;9.39;100.00
36726;BME280;44936;52.086;5.150;2022-12-20T10:33:54;101423.31;;;9.04;100.00
36726;BME280;44936;52.086;5.150;2022-12-20T10:36:36;101450.53;;;9.12;100.00
36726;BME280;44936;52.086;5.150;2022-12-20T10:39:06;101439.94;;;9.07;100.00
36726;BME280;44936;52.086;5.150;2022-12-20T10:44:24;101427.88;;;9.14;100.00
36726;BME280;44936;52.086;5.150;2022-12-20T10:46:58;101392.78;;;9.03;100.00
36726;BME280;44936;52.086;5.150;2022-12-20T10:52:07;101463.28;;;9.44;100.00
36726;BME280;44936;52.086;5.150;2022-12-20T10:54:39;101430.97;;;9.42;100.00
36726;BME280;44936;52.086;5.150;2022-12-20T10:57:21;101432.81;;;9.46;100.00
36726;BME280;44936;52.086;5.150;2022-12-20T11:07:35;101401.16;;;9.33;100.00
36726;BME280;44936;52.086;5.150;2022-12-20T11:10:28;101424.97;;;9.49;100.00
36726;BME280;44936;52.086;5.150;2022-12-20T11:16:07;101385.28;;;9.24;100.00
36726;BME280;44936;52.086;5.150;2022-12-20T11:22:21;101452.03;;;9.48;100.00
36726;BME280;44936;52.086;5.150;2022-12-20T11:36:05;101397.94;;;9.50;100.00
36726;BME280;44936;52.086;5.150;2022-12-20T11:38:43;101402.16;;;9.42;100.00
36726;BME280;44936;52.086;5.150;2022-12-20T11:44:32;101405.66;;;9.41;100.00
36726;BME280;44936;52.086;5.150;2022-12-20T11:47:30;101385.75;;;9.53;100.00
36726;BME280;44936;52.086;5.150;2022-12-20T11:53:01;101369.44;;;9.17;100.00
36726;BME280;44936;52.086;5.150;2022-12-20T11:55:35;101421.47;;;9.47;100.00
36726;BME280;44936;52.086;5.150;2022-12-20T12:01:09;101330.56;;;9.40;100.00
36726;BME280;44936;52.086;5.150;2022-12-20T12:03:40;101291.84;;;9.19;100.00
36726;BME280;44936;52.086;5.150;2022-12-20T12:06:24;101363.03;;;9.51;100.00
36726;BME280;44936;52.086;5.150;2022-12-20T12:09:10;101369.13;;;9.50;100.00
36726;BME280;44936;52.086;5.150;2022-12-20T12:11:46;101401.41;;;9.49;100.00
36726;BME280;44936;52.086;5.150;2022-12-20T12:14:28;101411.16;;;9.56;100.00
36726;BME280;44936;52.086;5.150;2022-12-20T12:17:10;101368.81;;;9.28;100.00
36726;BME280;44936;52.086;5.150;2022-12-20T12:19:45;101325.94;;;9.23;100.00
36726;BME280;44936;52.086;5.150;2022-12-20T12:22:23;101399.78;;;9.55;100.00
36726;BME280;44936;52.086;5.150;2022-12-20T12:24:56;101415.38;;;9.48;100.00
36726;BME280;44936;52.086;5.150;2022-12-20T12:27:26;101343.44;;;9.26;100.00
36726;BME280;44936;52.086;5.150;2022-12-20T12:29:55;101341.63;;;9.20;100.00
36726;BME280;44936;52.086;5.150;2022-12-20T12:32:35;101376.09;;;9.48;100.00
36726;BME280;44936;52.086;5.150;2022-12-20T12:35:44;101380.78;;;9.69;100.00
36726;BME280;44936;52.086;5.150;2022-12-20T12:41:19;101371.75;;;9.50;100.00
36726;BME280;44936;52.086;5.150;2022-12-20T12:43:50;101378.16;;;9.69;100.00
36726;BME280;44936;52.086;5.150;2022-12-20T12:46:23;101328.84;;;9.42;100.00
36726;BME280;44936;52.086;5.150;2022-12-20T12:49:15;101385.13;;;9.67;100.00
36726;BME280;44936;52.086;5.150;2022-12-20T12:51:53;101362.25;;;9.55;100.00
36726;BME280;44936;52.086;5.150;2022-12-20T12:54:37;101317.31;;;9.29;100.00
36726;BME280;44936;52.086;5.150;2022-12-20T12:57:16;101325.34;;;9.40;100.00
36726;BME280;44936;52.086;5.150;2022-12-20T12:59:45;101372.56;;;9.46;100.00
36726;BME280;44936;52.086;5.150;2022-12-20T13:20:35;101347.44;;;9.57;100.00
36726;BME280;44936;52.086;5.150;2022-12-20T13:25:45;101331.75;;;9.60;100.00
36726;BME280;44936;52.086;5.150;2022-12-20T13:30:43;101321.69;;;9.28;100.00
36726;BME280;44936;52.086;5.150;2022-12-20T13:33:22;101371.47;;;9.31;100.00
36726;BME280;44936;52.086;5.150;2022-12-20T13:36:03;101384.84;;;9.50;100.00
36726;BME280;44936;52.086;5.150;2022-12-20T13:49:43;101388.88;;;9.29;100.00
36726;BME280;44936;52.086;5.150;2022-12-20T13:52:21;101374.25;;;9.42;100.00
36726;BME280;44936;52.086;5.150;2022-12-20T13:54:53;101370.03;;;9.52;100.00
36726;BME280;44936;52.086;5.150;2022-12-20T13:57:41;101388.66;;;9.70;100.00
36726;BME280;44936;52.086;5.150;2022-12-20T14:00:25;101346.53;;;9.55;100.00
36726;BME280;44936;52.086;5.150;2022-12-20T14:03:02;101305.09;;;9.28;100.00
36726;BME280;44936;52.086;5.150;2022-12-20T14:05:36;101380.78;;;9.70;100.00
36726;BME280;44936;52.086;5.150;2022-12-20T14:08:08;101340.94;;;9.33;100.00
36726;BME280;44936;52.086;5.150;2022-12-20T14:10:39;101346.06;;;9.27;100.00
36726;BME280;44936;52.086;5.150;2022-12-20T14:13:34;101366.00;;;9.72;100.00
36726;BME280;44936;52.086;5.150;2022-12-20T14:16:13;101317.66;;;9.50;100.00
36726;BME280;44936;52.086;5.150;2022-12-20T14:18:39;101313.31;;;9.54;100.00
36726;BME280;44936;52.086;5.150;2022-12-20T14:21:05;101334.38;;;9.61;100.00
36726;BME280;44936;52.086;5.150;2022-12-20T14:23:40;101324.53;;;9.44;100.00
36726;BME280;44936;52.086;5.150;2022-12-20T14:26:24;101343.56;;;9.35;100.00
36726;BME280;44936;52.086;5.150;2022-12-20T14:28:52;101352.53;;;9.48;100.00
36726;BME280;44936;52.086;5.150;2022-12-20T14:31:29;101404.19;;;9.59;100.00
36726;BME280;44936;52.086;5.150;2022-12-20T14:36:42;101396.06;;;9.41;100.00
36726;BME280;44936;52.086;5.150;2022-12-20T14:39:30;101404.97;;;9.54;100.00
36726;BME280;44936;52.086;5.150;2022-12-20T14:42:01;101361.44;;;9.60;100.00
36726;BME280;44936;52.086;5.150;2022-12-20T14:44:29;101313.88;;;9.31;100.00
36726;BME280;44936;52.086;5.150;2022-12-20T14:47:00;101356.59;;;9.29;100.00
36726;BME280;44936;52.086;5.150;2022-12-20T14:49:37;101379.31;;;9.31;100.00
36726;BME280;44936;52.086;5.150;2022-12-20T14:54:58;101355.72;;;9.30;100.00
36726;BME280;44936;52.086;5.150;2022-12-20T15:00:11;101372.31;;;9.29;100.00
36726;BME280;44936;52.086;5.150;2022-12-20T15:13:37;101361.84;;;9.30;100.00
36726;BME280;44936;52.086;5.150;2022-12-20T15:18:39;101293.53;;;9.15;100.00
36726;BME280;44936;52.086;5.150;2022-12-20T15:21:29;101320.16;;;9.44;100.00
36726;BME280;44936;52.086;5.150;2022-12-20T15:23:57;101347.41;;;9.55;100.00
36726;BME280;44936;52.086;5.150;2022-12-20T15:26:26;101313.00;;;9.31;100.00
36726;BME280;44936;52.086;5.150;2022-12-20T15:28:53;101370.09;;;9.55;100.00
36726;BME280;44936;52.086;5.150;2022-12-20T15:31:21;101326.28;;;9.45;100.00
36726;BME280;44936;52.086;5.150;2022-12-20T15:33:56;101320.84;;;9.31;100.00